Terminal Aerodrome Forecast
Issued by NWS

Home | Current Version | Previous Version | Text Only | Print | Product List | Glossary Off
Versions: 1 2 3 4 5 6 7 8 9 10 11 12 13 14 15 16 17 18 19 20 21 22 23 24 25 26 27 28 29 30 31 32 33 34

000
FTUS43 KGRB 270520
TAFRHI
TAF
KRHI 270520Z 2706/2806 35003KT 6SM BR OVC003
      TEMPO 2706/2709 5SM BR SCT003 OVC010
     FM271500 02004KT 6SM BR OVC006
     FM272100 02003KT 6SM BR OVC013
     FM280200 03004KT P6SM BKN020=

USA.gov is the U.S. government's official web portal to all federal, state and local government web resources and services.